createdAt,value
2022-07-27T00:00:00.877Z,81.81
2022-07-27T00:01:00.912Z,82.21
2022-07-27T00:02:00.906Z,81.81
2022-07-27T00:03:00.851Z,82.01
2022-07-27T00:04:00.860Z,81.30
2022-07-27T00:05:00.891Z,81.60
2022-07-27T00:06:00.792Z,82.62
2022-07-27T00:07:00.802Z,82.31
2022-07-27T00:08:00.794Z,81.71
2022-07-27T00:09:00.750Z,81.30
2022-07-27T00:10:00.744Z,81.81
2022-07-27T00:11:00.733Z,81.81
2022-07-27T00:12:00.746Z,81.71
2022-07-27T00:13:00.723Z,81.81
2022-07-27T00:14:00.691Z,81.81
2022-07-27T00:15:00.701Z,81.81
2022-07-27T00:16:00.750Z,81.50
2022-07-27T00:17:00.689Z,81.81
2022-07-27T00:18:00.658Z,82.05
2022-07-27T00:19:00.696Z,82.56
2022-07-27T00:20:00.641Z,82.25
2022-07-27T00:21:00.629Z,82.45
2022-07-27T00:22:00.614Z,82.35
2022-07-27T00:23:00.602Z,82.56
2022-07-27T00:24:00.582Z,82.56
2022-07-27T00:25:00.593Z,82.86
2022-07-27T00:26:00.553Z,82.96
2022-07-27T00:27:00.562Z,83.37
2022-07-27T00:28:00.549Z,83.37
2022-07-27T00:29:00.541Z,83.61
2022-07-27T00:30:00.542Z,83.81
2022-07-27T00:31:00.647Z,83.61
2022-07-27T00:32:00.501Z,83.40
2022-07-27T00:33:00.503Z,83.61
2022-07-27T00:34:00.472Z,83.71
2022-07-27T00:35:00.473Z,83.81
2022-07-27T00:36:00.467Z,83.91
2022-07-27T00:37:00.446Z,84.01
2022-07-27T00:38:00.450Z,84.12
2022-07-27T00:39:00.436Z,84.22
2022-07-27T00:40:00.407Z,84.22
2022-07-27T00:41:00.425Z,84.42
2022-07-27T00:42:00.385Z,84.52
2022-07-27T00:43:00.445Z,84.72
2022-07-27T00:44:00.366Z,84.83
2022-07-27T00:45:00.356Z,84.72
2022-07-27T00:46:04.488Z,84.56
2022-07-27T00:47:00.363Z,84.87
2022-07-27T00:48:00.313Z,84.97
2022-07-27T00:49:00.344Z,85.38
2022-07-27T00:50:00.297Z,85.17
2022-07-27T00:51:00.309Z,85.38
2022-07-27T00:52:00.267Z,85.38
2022-07-27T00:53:00.277Z,85.47
2022-07-27T00:54:00.247Z,85.47
2022-07-27T00:55:00.257Z,85.47
2022-07-27T00:56:00.228Z,85.58
2022-07-27T00:57:00.219Z,85.88
2022-07-27T00:58:00.199Z,85.88
2022-07-27T00:59:00.526Z,85.78
2022-07-27T01:00:00.217Z,85.98
2022-07-27T01:01:00.199Z,86.19
2022-07-27T01:02:00.279Z,85.98
2022-07-27T01:03:02.517Z,85.88
2022-07-27T01:04:01.137Z,86.29
2022-07-27T01:05:00.213Z,86.29
2022-07-27T01:06:01.877Z,85.68
2022-07-27T01:07:00.105Z,85.98
2022-07-27T01:08:00.100Z,86.08
2022-07-27T01:09:00.090Z,85.88
2022-07-27T01:10:00.169Z,85.53
2022-07-27T01:11:00.089Z,85.74
2022-07-27T01:12:00.818Z,85.74
2022-07-27T01:13:00.058Z,85.64
2022-07-27T01:14:00.019Z,85.74
2022-07-27T01:15:00.040Z,85.84
2022-07-27T01:16:00.081Z,85.88
2022-07-27T01:17:00.006Z,86.19
2022-07-27T01:17:59.979Z,85.68
2022-07-27T01:18:59.998Z,85.78
2022-07-27T01:19:59.958Z,85.88
2022-07-27T01:20:59.978Z,85.98
2022-07-27T01:21:59.937Z,86.08
2022-07-27T01:22:59.929Z,86.39
2022-07-27T01:23:59.918Z,86.39
2022-07-27T01:24:59.918Z,86.39
2022-07-27T01:25:59.907Z,86.19
2022-07-27T01:26:59.890Z,86.19
2022-07-27T01:27:59.878Z,86.29
2022-07-27T01:28:59.878Z,86.39
2022-07-27T01:29:59.851Z,86.59
2022-07-27T01:30:59.850Z,86.29
2022-07-27T01:31:59.838Z,86.69
2022-07-27T01:32:59.810Z,86.80
2022-07-27T01:33:59.809Z,86.49
2022-07-27T01:34:59.822Z,86.90
2022-07-27T01:35:59.789Z,86.69
2022-07-27T01:36:59.781Z,86.59
2022-07-27T01:37:59.751Z,86.59
2022-07-27T01:38:59.750Z,86.59
2022-07-27T01:39:59.742Z,86.80
2022-07-27T01:40:59.734Z,86.80
2022-07-27T01:41:59.709Z,87.10
2022-07-27T01:42:59.702Z,87.30
2022-07-27T01:43:59.719Z,87.04
2022-07-27T01:44:59.690Z,87.34
2022-07-27T01:45:59.699Z,87.45
2022-07-27T01:46:59.661Z,87.65
2022-07-27T01:47:59.651Z,87.65
2022-07-27T01:48:59.716Z,87.85
2022-07-27T01:49:59.644Z,87.85
2022-07-27T01:50:59.621Z,88.26
2022-07-27T01:51:59.630Z,88.06
2022-07-27T01:52:59.603Z,87.95
2022-07-27T01:53:59.586Z,88.26
2022-07-27T01:54:59.582Z,88.46
2022-07-27T01:55:59.555Z,88.26
2022-07-27T01:56:59.555Z,88.46
2022-07-27T01:57:59.563Z,88.56
2022-07-27T01:58:59.537Z,88.67
2022-07-27T01:59:59.514Z,88.46
2022-07-27T02:00:59.541Z,88.67
2022-07-27T02:01:59.563Z,88.67
2022-07-27T02:02:59.506Z,88.36
2022-07-27T02:03:59.477Z,88.26
2022-07-27T02:04:59.582Z,88.50
2022-07-27T02:05:59.455Z,88.60
2022-07-27T02:06:59.436Z,88.71
2022-07-27T02:07:59.440Z,88.71
2022-07-27T02:08:59.427Z,88.81
2022-07-27T02:09:59.402Z,89.11
2022-07-27T02:10:59.398Z,89.31
2022-07-27T02:11:59.374Z,89.62
2022-07-27T02:12:59.390Z,89.31
2022-07-27T02:13:59.374Z,89.11
2022-07-27T02:14:59.443Z,89.22
2022-07-27T02:16:00.395Z,89.52
2022-07-27T02:16:59.330Z,89.31
2022-07-27T02:17:59.340Z,89.22
2022-07-27T02:18:59.351Z,89.11
2022-07-27T02:20:00.875Z,89.22
2022-07-27T02:20:59.440Z,89.31
2022-07-27T02:21:59.266Z,89.42
2022-07-27T02:22:59.255Z,89.46
2022-07-27T02:23:59.277Z,89.56
2022-07-27T02:24:59.247Z,89.56
2022-07-27T02:25:59.213Z,89.76
2022-07-27T02:26:59.240Z,89.87
2022-07-27T02:27:59.207Z,89.87
2022-07-27T02:28:59.219Z,90.07
2022-07-27T02:29:59.178Z,90.27
2022-07-27T02:30:59.166Z,90.37
2022-07-27T02:31:59.146Z,90.37
2022-07-27T02:32:59.191Z,90.27
2022-07-27T02:33:59.159Z,90.48
2022-07-27T02:34:59.127Z,90.37
2022-07-27T02:35:59.129Z,90.48
2022-07-27T02:36:59.107Z,90.58
2022-07-27T02:37:59.081Z,90.58
2022-07-27T02:38:59.107Z,90.58
2022-07-27T02:39:59.058Z,90.88
2022-07-27T02:40:59.080Z,91.19
2022-07-27T02:41:59.049Z,91.09
2022-07-27T02:42:59.038Z,91.09
2022-07-27T02:43:59.038Z,90.88
2022-07-27T02:44:59.011Z,91.09
2022-07-27T02:45:59.029Z,91.03
2022-07-27T02:46:58.993Z,91.03
2022-07-27T02:47:58.972Z,90.83
2022-07-27T02:48:59.043Z,90.72
2022-07-27T02:49:58.970Z,90.88
2022-07-27T02:50:58.959Z,90.92
2022-07-27T02:51:58.927Z,91.23
2022-07-27T02:52:58.966Z,90.83
2022-07-27T02:53:58.920Z,90.92
2022-07-27T02:54:59.051Z,91.43
2022-07-27T02:55:58.898Z,91.33
2022-07-27T02:56:58.891Z,91.13
2022-07-27T02:57:58.858Z,91.13
2022-07-27T02:58:58.851Z,91.33
2022-07-27T02:59:58.838Z,91.33
2022-07-27T03:00:59.012Z,91.43
2022-07-27T03:01:58.917Z,91.53
2022-07-27T03:02:58.825Z,91.74
2022-07-27T03:03:58.845Z,91.84
2022-07-27T03:04:58.811Z,91.99
2022-07-27T03:05:58.792Z,92.09
2022-07-27T03:06:58.759Z,92.09
2022-07-27T03:07:58.773Z,92.19
2022-07-27T03:08:58.732Z,92.49
2022-07-27T03:09:58.743Z,92.49
2022-07-27T03:10:58.730Z,92.60
2022-07-27T03:11:58.710Z,92.60
2022-07-27T03:12:58.691Z,92.70
2022-07-27T03:13:58.690Z,92.90
2022-07-27T03:14:58.698Z,93.10
2022-07-27T03:15:58.730Z,93.21
2022-07-27T03:16:58.643Z,93.01
2022-07-27T03:17:58.656Z,93.41
2022-07-27T03:18:58.640Z,93.31
2022-07-27T03:19:58.630Z,93.21
2022-07-27T03:20:58.862Z,93.10
2022-07-27T03:21:58.626Z,93.10
2022-07-27T03:22:58.611Z,93.10
2022-07-27T03:23:58.582Z,93.01
2022-07-27T03:24:58.562Z,92.80
2022-07-27T03:25:58.554Z,92.80
2022-07-27T03:26:58.543Z,92.70
2022-07-27T03:28:03.788Z,92.80
2022-07-27T03:28:59.512Z,92.90
2022-07-27T03:29:58.523Z,93.01
2022-07-27T03:30:58.527Z,93.01
2022-07-27T03:31:58.511Z,93.10
2022-07-27T03:32:59.037Z,93.21
2022-07-27T03:33:58.463Z,93.10
2022-07-27T03:34:58.610Z,93.10
2022-07-27T03:35:58.443Z,93.21
2022-07-27T03:36:58.435Z,93.31
2022-07-27T03:37:58.423Z,93.21
2022-07-27T03:39:00.745Z,93.41
2022-07-27T03:39:59.397Z,93.21
2022-07-27T03:40:58.385Z,93.41
2022-07-27T03:41:58.451Z,93.21
2022-07-27T03:42:58.358Z,93.31
2022-07-27T03:43:58.368Z,93.55
2022-07-27T03:44:58.335Z,93.31
2022-07-27T03:45:58.423Z,93.31
2022-07-27T03:46:58.323Z,93.45
2022-07-27T03:47:58.325Z,93.55
2022-07-27T03:48:58.350Z,93.55
2022-07-27T03:49:58.287Z,93.66
2022-07-27T03:50:58.268Z,93.76
2022-07-27T03:51:58.276Z,93.86
2022-07-27T03:52:58.247Z,93.96
2022-07-27T03:53:58.263Z,93.96
2022-07-27T03:54:58.228Z,94.07
2022-07-27T03:55:58.228Z,94.07
2022-07-27T03:56:58.228Z,94.07
2022-07-27T03:57:58.208Z,94.07
2022-07-27T03:58:58.190Z,94.17
2022-07-27T03:59:58.187Z,94.17
2022-07-27T04:00:58.229Z,94.27
2022-07-27T04:01:58.212Z,94.31
2022-07-27T04:02:58.196Z,94.42
2022-07-27T04:03:58.136Z,94.52
2022-07-27T04:04:58.116Z,94.72
2022-07-27T04:05:58.196Z,95.23
2022-07-27T04:06:58.109Z,95.03
2022-07-27T04:07:58.106Z,94.92
2022-07-27T04:09:13.775Z,94.82
2022-07-27T04:09:59.106Z,94.72
2022-07-27T04:10:58.050Z,95.03
2022-07-27T04:11:58.039Z,94.92
2022-07-27T04:12:58.105Z,94.92
2022-07-27T04:13:58.349Z,95.03
2022-07-27T04:14:58.014Z,95.43
2022-07-27T04:15:58.095Z,95.53
2022-07-27T04:16:58.057Z,95.53
2022-07-27T04:17:58.167Z,95.53
2022-07-27T04:18:57.976Z,95.64
2022-07-27T04:19:58.046Z,95.84
2022-07-27T04:20:58.002Z,95.74
2022-07-27T04:21:57.964Z,95.68
2022-07-27T04:22:57.935Z,95.89
2022-07-27T04:23:57.930Z,95.89
2022-07-27T04:24:57.923Z,96.30
2022-07-27T04:25:57.886Z,96.25
2022-07-27T04:26:57.872Z,96.15
2022-07-27T04:27:57.970Z,96.04
2022-07-27T04:28:57.862Z,96.15
2022-07-27T04:29:57.972Z,96.15
2022-07-27T04:30:57.892Z,96.19
2022-07-27T04:31:57.829Z,96.30
2022-07-27T04:32:57.810Z,96.19
2022-07-27T04:33:57.799Z,96.19
2022-07-27T04:34:57.783Z,96.39
2022-07-27T04:35:58.032Z,96.30
2022-07-27T04:36:57.779Z,96.19
2022-07-27T04:37:59.795Z,96.30
2022-07-27T04:38:57.750Z,96.39
2022-07-27T04:39:57.742Z,96.39
2022-07-27T04:40:58.513Z,96.50
2022-07-27T04:41:57.710Z,96.39
2022-07-27T04:42:57.692Z,96.30
2022-07-27T04:43:57.691Z,96.30
2022-07-27T04:44:57.709Z,96.60
2022-07-27T04:45:57.723Z,96.80
2022-07-27T04:46:57.653Z,96.91
2022-07-27T04:47:57.648Z,96.80
2022-07-27T04:48:57.688Z,96.91
2022-07-27T04:49:57.630Z,96.50
2022-07-27T04:50:57.603Z,96.30
2022-07-27T04:51:57.610Z,96.39
2022-07-27T04:52:57.574Z,96.19
2022-07-27T04:53:58.605Z,96.19
2022-07-27T04:54:57.573Z,96.30
2022-07-27T04:55:57.569Z,96.30
2022-07-27T04:56:57.570Z,96.39
2022-07-27T04:57:57.522Z,96.30
2022-07-27T04:58:57.510Z,96.39
2022-07-27T04:59:57.514Z,96.39
2022-07-27T05:00:57.543Z,96.30
2022-07-27T05:01:57.494Z,96.39
2022-07-27T05:02:57.482Z,96.39
2022-07-27T05:03:57.691Z,96.50
2022-07-27T05:04:57.443Z,96.50
2022-07-27T05:05:57.444Z,96.30
2022-07-27T05:06:57.430Z,96.30
2022-07-27T05:07:57.436Z,96.09
2022-07-27T05:08:57.403Z,95.98
2022-07-27T05:09:57.403Z,95.98
2022-07-27T05:10:57.415Z,95.98
2022-07-27T05:11:57.374Z,95.64
2022-07-27T05:12:57.343Z,95.64
2022-07-27T05:13:57.354Z,95.64
2022-07-27T05:14:57.337Z,95.53
2022-07-27T05:15:57.339Z,95.64
2022-07-27T05:16:57.436Z,95.64
2022-07-27T05:17:57.316Z,95.74
2022-07-27T05:18:57.307Z,95.74
2022-07-27T05:19:57.283Z,95.74
2022-07-27T05:20:57.277Z,95.53
2022-07-27T05:21:57.275Z,95.64
2022-07-27T05:22:57.255Z,95.74
2022-07-27T05:23:57.383Z,95.74
2022-07-27T05:24:57.215Z,96.04
2022-07-27T05:25:57.222Z,95.64
2022-07-27T05:26:57.207Z,95.53
2022-07-27T05:27:57.207Z,95.74
2022-07-27T05:28:57.175Z,95.74
2022-07-27T05:29:57.195Z,95.84
2022-07-27T05:30:57.187Z,95.49
2022-07-27T05:31:57.310Z,94.98
2022-07-27T05:32:57.140Z,94.78
2022-07-27T05:33:58.348Z,94.88
2022-07-27T05:34:57.107Z,94.88
2022-07-27T05:35:57.113Z,94.78
2022-07-27T05:36:57.102Z,94.98
2022-07-27T05:37:57.088Z,94.98
2022-07-27T05:38:57.077Z,94.78
2022-07-27T05:39:57.078Z,94.57
2022-07-27T05:40:57.057Z,94.32
2022-07-27T05:41:57.047Z,94.32
2022-07-27T05:42:57.026Z,94.32
2022-07-27T05:43:57.029Z,94.32
2022-07-27T05:44:56.995Z,93.71
2022-07-27T05:45:57.009Z,93.71
2022-07-27T05:46:56.988Z,93.62
2022-07-27T05:47:56.979Z,93.62
2022-07-27T05:48:57.277Z,93.47
2022-07-27T05:49:56.966Z,93.67
2022-07-27T05:50:56.943Z,93.77
2022-07-27T05:51:56.948Z,93.57
2022-07-27T05:52:56.915Z,93.57
2022-07-27T05:53:56.915Z,93.87
2022-07-27T05:54:56.911Z,93.77
2022-07-27T05:55:59.234Z,93.87
2022-07-27T05:56:56.877Z,93.47
2022-07-27T05:57:56.848Z,92.82
2022-07-27T05:58:56.849Z,92.71
2022-07-27T05:59:56.829Z,92.71
2022-07-27T06:00:56.921Z,92.61
2022-07-27T06:01:56.827Z,92.00
2022-07-27T06:02:56.802Z,91.55
2022-07-27T06:03:57.155Z,91.45
2022-07-27T06:04:56.827Z,91.35
2022-07-27T06:05:56.761Z,91.14
2022-07-27T06:06:56.749Z,90.53
2022-07-27T06:07:56.761Z,90.53
2022-07-27T06:08:56.739Z,89.98
2022-07-27T06:09:56.722Z,90.09
2022-07-27T06:10:56.709Z,89.78
2022-07-27T06:11:56.700Z,89.68
2022-07-27T06:12:56.688Z,89.58
2022-07-27T06:13:56.692Z,89.54
2022-07-27T06:14:56.672Z,89.54
2022-07-27T06:15:56.660Z,89.13
2022-07-27T06:16:56.682Z,88.62
2022-07-27T06:17:56.639Z,88.93
2022-07-27T06:18:56.619Z,88.82
2022-07-27T06:19:56.613Z,88.48
2022-07-27T06:20:56.601Z,88.99
2022-07-27T06:21:56.621Z,88.68
2022-07-27T06:22:56.580Z,89.39
2022-07-27T06:23:56.604Z,88.78
2022-07-27T06:24:56.572Z,88.07
2022-07-27T06:25:56.552Z,87.37
2022-07-27T06:26:56.533Z,87.77
2022-07-27T06:27:56.861Z,88.34
2022-07-27T06:28:56.501Z,87.73
2022-07-27T06:29:56.502Z,87.22
2022-07-27T06:30:56.484Z,86.91
2022-07-27T06:31:56.516Z,86.82
2022-07-27T06:32:56.495Z,86.07
2022-07-27T06:33:56.471Z,85.66
2022-07-27T06:34:56.432Z,86.16
2022-07-27T06:35:56.453Z,85.76
2022-07-27T06:36:56.423Z,86.16
2022-07-27T06:37:56.412Z,85.76
2022-07-27T06:38:56.393Z,85.66
2022-07-27T06:39:56.392Z,85.25
2022-07-27T06:40:56.427Z,84.95
2022-07-27T06:41:58.371Z,85.46
2022-07-27T06:42:56.366Z,86.77
2022-07-27T06:43:56.352Z,85.86
2022-07-27T06:44:56.345Z,85.56
2022-07-27T06:45:56.325Z,85.76
2022-07-27T06:46:56.354Z,85.56
2022-07-27T06:47:56.304Z,86.37
2022-07-27T06:48:56.324Z,86.16
2022-07-27T06:49:56.285Z,85.56
2022-07-27T06:50:56.271Z,86.57
2022-07-27T06:51:56.274Z,86.27
2022-07-27T06:52:56.845Z,86.68
2022-07-27T06:53:56.247Z,86.94
2022-07-27T06:54:56.240Z,86.53
2022-07-27T06:55:56.205Z,85.42
2022-07-27T06:56:56.219Z,86.02
2022-07-27T06:57:56.206Z,85.42
2022-07-27T06:58:56.198Z,85.82
2022-07-27T06:59:56.178Z,85.72
2022-07-27T07:00:56.198Z,84.61
2022-07-27T07:01:56.159Z,84.30
2022-07-27T07:02:56.141Z,84.61
2022-07-27T07:03:56.241Z,84.50
2022-07-27T07:04:56.106Z,83.90
2022-07-27T07:05:56.108Z,83.80
2022-07-27T07:06:56.085Z,84.41
2022-07-27T07:07:56.077Z,84.61
2022-07-27T07:08:56.077Z,85.21
2022-07-27T07:09:56.085Z,85.48
2022-07-27T07:10:56.081Z,84.67
2022-07-27T07:11:56.037Z,84.63
2022-07-27T07:12:56.334Z,83.41
2022-07-27T07:13:56.019Z,82.81
2022-07-27T07:14:56.007Z,82.40
2022-07-27T07:15:56.063Z,82.50
2022-07-27T07:16:55.966Z,82.46
2022-07-27T07:17:56.211Z,81.35
2022-07-27T07:18:55.949Z,81.59
2022-07-27T07:19:55.937Z,81.59
2022-07-27T07:20:55.930Z,81.96
2022-07-27T07:21:55.919Z,82.06
2022-07-27T07:22:55.954Z,81.45
2022-07-27T07:23:55.892Z,80.94
2022-07-27T07:25:00.714Z,80.54
2022-07-27T07:25:56.871Z,81.15
2022-07-27T07:26:55.870Z,81.55
2022-07-27T07:27:55.859Z,81.55
2022-07-27T07:28:55.859Z,82.36
2022-07-27T07:29:55.818Z,82.97
2022-07-27T07:30:55.854Z,83.44
2022-07-27T07:31:55.833Z,82.02
2022-07-27T07:32:55.814Z,80.50
2022-07-27T07:33:55.802Z,80.40
2022-07-27T07:34:55.770Z,80.13
2022-07-27T07:36:12.411Z,79.73
2022-07-27T07:36:56.749Z,79.73
2022-07-27T07:37:55.752Z,79.63
2022-07-27T07:38:55.734Z,79.63
2022-07-27T07:39:55.738Z,80.20
2022-07-27T07:40:55.734Z,81.01
2022-07-27T07:41:55.695Z,81.31
2022-07-27T07:42:55.716Z,80.80
2022-07-27T07:43:55.661Z,79.59
2022-07-27T07:44:55.759Z,80.20
2022-07-27T07:45:55.649Z,79.29
2022-07-27T07:46:55.715Z,79.90
2022-07-27T07:47:55.622Z,79.79
2022-07-27T07:48:55.690Z,79.19
2022-07-27T07:49:55.610Z,78.38
2022-07-27T07:50:55.597Z,78.99
2022-07-27T07:51:55.583Z,78.78
2022-07-27T07:52:55.742Z,79.29
2022-07-27T07:53:55.563Z,78.85
2022-07-27T07:54:55.575Z,78.64
2022-07-27T07:55:55.542Z,76.93
2022-07-27T07:56:55.534Z,77.43
2022-07-27T07:57:55.507Z,77.64
2022-07-27T07:58:55.502Z,75.95
2022-07-27T07:59:55.497Z,77.17
2022-07-27T08:00:55.488Z,78.58
2022-07-27T08:01:55.492Z,78.38
2022-07-27T08:02:55.535Z,77.57
2022-07-27T08:03:55.450Z,77.77
2022-07-27T08:04:56.093Z,77.47
2022-07-27T08:05:55.435Z,77.33
2022-07-27T08:06:55.414Z,76.72
2022-07-27T08:07:55.401Z,76.42
2022-07-27T08:08:55.408Z,76.52
2022-07-27T08:09:55.394Z,75.10
2022-07-27T08:10:55.386Z,75.31
2022-07-27T08:11:55.367Z,77.29
2022-07-27T08:12:55.355Z,78.30
2022-07-27T08:13:55.342Z,76.69
2022-07-27T08:14:55.334Z,76.08
2022-07-27T08:15:55.421Z,76.55
2022-07-27T08:16:55.308Z,76.25
2022-07-27T08:17:55.278Z,76.35
2022-07-27T08:18:55.286Z,74.13
2022-07-27T08:19:55.259Z,74.53
2022-07-27T08:20:55.276Z,77.66
2022-07-27T08:21:55.238Z,76.82
2022-07-27T08:22:55.239Z,74.73
2022-07-27T08:23:55.229Z,75.44
2022-07-27T08:24:55.221Z,75.74
2022-07-27T08:25:55.231Z,75.24
2022-07-27T08:26:55.201Z,77.22
2022-07-27T08:27:56.254Z,76.51
2022-07-27T08:28:55.179Z,75.10
2022-07-27T08:29:55.146Z,76.21
2022-07-27T08:30:55.459Z,74.90
2022-07-27T08:31:55.292Z,74.80
2022-07-27T08:32:55.334Z,74.96
2022-07-27T08:33:55.113Z,74.26
2022-07-27T08:34:55.112Z,73.72
2022-07-27T08:35:55.108Z,72.00
2022-07-27T08:36:55.106Z,71.94
2022-07-27T08:37:55.071Z,73.35
2022-07-27T08:38:55.071Z,73.45
2022-07-27T08:40:56.052Z,72.04
2022-07-27T08:41:55.019Z,72.58
2022-07-27T08:42:55.022Z,70.15
2022-07-27T08:43:55.005Z,72.21
2022-07-27T08:44:55.002Z,71.91
2022-07-27T08:45:54.979Z,71.70
2022-07-27T08:46:55.008Z,71.20
2022-07-27T08:47:54.952Z,71.84
2022-07-27T08:48:55.009Z,72.34
2022-07-27T08:49:54.957Z,71.64
2022-07-27T08:50:54.922Z,72.48
2022-07-27T08:51:54.921Z,72.17
2022-07-27T08:52:54.904Z,71.57
2022-07-27T08:53:54.891Z,71.87
2022-07-27T08:54:54.895Z,72.68
2022-07-27T08:55:54.866Z,73.08
2022-07-27T08:56:54.883Z,73.90
2022-07-27T08:57:57.841Z,73.99
2022-07-27T08:58:55.835Z,73.05
2022-07-27T08:59:54.835Z,71.64
2022-07-27T09:00:54.822Z,70.69
2022-07-27T09:01:54.848Z,68.17
2022-07-27T09:02:54.855Z,68.95
2022-07-27T09:03:54.798Z,66.99
2022-07-27T09:04:54.783Z,65.95
2022-07-27T09:05:54.796Z,67.33
2022-07-27T09:06:54.767Z,66.09
2022-07-27T09:07:54.743Z,65.69
2022-07-27T09:08:54.734Z,62.06
2022-07-27T09:09:54.711Z,61.49
2022-07-27T09:10:54.924Z,61.69
2022-07-27T09:11:54.695Z,63.70
2022-07-27T09:12:54.687Z,63.47
2022-07-27T09:13:54.675Z,61.96
2022-07-27T09:14:54.666Z,62.26
2022-07-27T09:16:16.731Z,63.37
2022-07-27T09:17:45.955Z,63.57
2022-07-27T09:17:55.661Z,62.06
2022-07-27T09:18:54.639Z,62.97
2022-07-27T09:19:54.601Z,62.04
2022-07-27T09:20:54.595Z,62.04
2022-07-27T09:21:54.668Z,61.10
2022-07-27T09:22:54.568Z,60.29
2022-07-27T09:23:54.572Z,58.95
2022-07-27T09:24:54.568Z,58.86
2022-07-27T09:26:04.332Z,58.65
2022-07-27T09:26:55.528Z,59.16
2022-07-27T09:27:54.508Z,59.06
2022-07-27T09:28:54.507Z,58.38
2022-07-27T09:29:54.763Z,57.28
2022-07-27T09:30:54.523Z,58.07
2022-07-27T09:31:54.459Z,60.93
2022-07-27T09:32:54.459Z,60.12
2022-07-27T09:33:54.447Z,59.82
2022-07-27T09:34:54.451Z,59.55
2022-07-27T09:35:54.427Z,61.36
2022-07-27T09:36:54.421Z,59.75
2022-07-27T09:37:54.392Z,60.15
2022-07-27T09:39:00.000Z,63.17
2022-07-27T09:39:55.393Z,60.96
2022-07-27T09:40:54.372Z,61.99
2022-07-27T09:41:55.256Z,63.20
2022-07-27T09:43:08.882Z,63.87
2022-07-27T09:44:56.603Z,63.70
2022-07-27T09:45:54.312Z,65.89
2022-07-27T09:46:54.370Z,63.75
2022-07-27T09:47:54.292Z,63.54
2022-07-27T09:48:54.321Z,64.78
2022-07-27T09:49:54.271Z,64.98
2022-07-27T09:51:02.147Z,63.98
2022-07-27T09:52:00.175Z,63.98
2022-07-27T09:52:55.244Z,63.57
2022-07-27T09:53:54.213Z,63.81
2022-07-27T09:54:54.244Z,64.21
2022-07-27T09:55:58.810Z,64.14
2022-07-27T09:56:55.193Z,65.05
2022-07-27T09:57:54.181Z,63.13
2022-07-27T09:58:54.172Z,63.73
2022-07-27T09:59:54.253Z,63.13
2022-07-27T10:00:54.145Z,62.73
2022-07-27T10:01:54.968Z,63.56
2022-07-27T10:02:54.145Z,63.36
2022-07-27T10:03:54.107Z,64.07
2022-07-27T10:04:54.145Z,65.15
2022-07-27T10:05:54.095Z,64.04
2022-07-27T10:07:02.868Z,64.64
2022-07-27T10:07:55.064Z,64.44
2022-07-27T10:08:54.065Z,64.98
2022-07-27T10:09:54.057Z,65.38
2022-07-27T10:10:54.044Z,64.78
2022-07-27T10:11:54.024Z,64.75
2022-07-27T10:12:55.492Z,64.98
2022-07-27T10:13:54.013Z,65.65
2022-07-27T10:14:53.997Z,67.57
2022-07-27T10:15:54.071Z,65.45
2022-07-27T10:16:53.967Z,66.25
2022-07-27T10:17:53.958Z,65.55
2022-07-27T10:18:55.645Z,65.25
2022-07-27T10:19:53.938Z,66.05
2022-07-27T10:20:53.950Z,65.75
2022-07-27T10:21:53.948Z,66.05
2022-07-27T10:22:53.897Z,65.95
2022-07-27T10:23:53.888Z,64.54
2022-07-27T10:24:53.900Z,65.55
2022-07-27T10:25:53.894Z,64.64
2022-07-27T10:26:53.861Z,64.54
2022-07-27T10:27:53.829Z,64.44
2022-07-27T10:28:53.843Z,64.04
2022-07-27T10:29:53.821Z,65.92
2022-07-27T10:30:54.727Z,65.72
2022-07-27T10:31:53.795Z,65.42
2022-07-27T10:32:53.801Z,65.52
2022-07-27T10:33:53.769Z,65.32
2022-07-27T10:34:53.770Z,65.01
2022-07-27T10:35:53.768Z,63.78
2022-07-27T10:36:53.753Z,62.46
2022-07-27T10:37:53.721Z,63.17
2022-07-27T10:38:53.721Z,63.47
2022-07-27T10:39:53.702Z,62.57
2022-07-27T10:40:53.821Z,62.97
2022-07-27T10:41:53.783Z,63.78
2022-07-27T10:42:54.833Z,63.57
2022-07-27T10:43:53.781Z,63.14
2022-07-27T10:44:53.669Z,65.16
2022-07-27T10:46:01.735Z,64.75
2022-07-27T10:46:54.691Z,66.74
2022-07-27T10:47:53.623Z,64.82
2022-07-27T10:48:53.658Z,64.42
2022-07-27T10:49:53.586Z,62.51
2022-07-27T10:50:53.594Z,62.91
2022-07-27T10:51:53.594Z,61.40
2022-07-27T10:52:53.587Z,62.30
2022-07-27T10:54:11.877Z,61.40
2022-07-27T10:54:59.830Z,60.29
2022-07-27T10:55:54.516Z,60.12
2022-07-27T10:56:53.554Z,60.32
2022-07-27T10:57:53.522Z,59.99
2022-07-27T10:58:53.506Z,60.80
2022-07-27T11:00:12.368Z,61.20
2022-07-27T11:00:55.590Z,61.27
2022-07-27T11:01:53.503Z,58.55
2022-07-27T11:02:53.468Z,59.23
2022-07-27T11:03:53.505Z,60.00
2022-07-27T11:04:53.515Z,58.40
2022-07-27T11:06:00.098Z,57.29
2022-07-27T11:07:23.010Z,56.79
2022-07-27T11:08:23.856Z,56.69
2022-07-27T11:09:27.420Z,55.76
2022-07-27T11:10:09.687Z,56.06
2022-07-27T11:10:54.877Z,57.81
2022-07-27T11:11:53.368Z,56.08
2022-07-27T11:12:53.351Z,57.76
2022-07-27T11:13:53.334Z,55.63
2022-07-27T11:14:53.350Z,55.20
2022-07-27T11:15:59.753Z,53.89
2022-07-27T11:16:56.625Z,52.52
2022-07-27T11:18:00.414Z,53.02
2022-07-27T11:18:54.358Z,54.02
2022-07-27T11:19:53.278Z,55.43
2022-07-27T11:20:53.262Z,55.35
2022-07-27T11:21:53.250Z,56.58
2022-07-27T11:23:40.673Z,56.28
2022-07-27T11:23:54.223Z,55.78
2022-07-27T11:24:53.223Z,56.01
2022-07-27T11:25:53.203Z,57.04
2022-07-27T11:26:53.204Z,56.93
2022-07-27T11:27:53.183Z,57.94
2022-07-27T11:28:53.183Z,58.47
2022-07-27T11:29:53.162Z,57.97
2022-07-27T11:30:53.261Z,59.20
2022-07-27T11:31:55.807Z,59.00
2022-07-27T11:32:53.136Z,61.74
2022-07-27T11:33:53.119Z,59.33
2022-07-27T11:34:53.130Z,60.13
2022-07-27T11:35:53.095Z,60.81
2022-07-27T11:36:53.104Z,60.21
2022-07-27T11:37:53.095Z,59.80
2022-07-27T11:38:53.075Z,60.41
2022-07-27T11:40:03.068Z,60.48
2022-07-27T11:40:57.979Z,59.98
2022-07-27T11:42:08.800Z,61.38
2022-07-27T11:42:54.027Z,57.94
2022-07-27T11:43:53.027Z,59.25
2022-07-27T11:44:53.481Z,61.93
2022-07-27T11:45:53.034Z,58.59
2022-07-27T11:46:52.975Z,59.09
2022-07-27T11:47:52.990Z,56.96
2022-07-27T11:49:09.209Z,57.56
2022-07-27T11:49:53.992Z,56.05
2022-07-27T11:50:53.000Z,56.02
2022-07-27T11:51:52.916Z,56.83
2022-07-27T11:52:52.927Z,55.40
2022-07-27T11:53:52.899Z,53.50
2022-07-27T11:54:52.982Z,52.89
2022-07-27T11:55:52.890Z,52.39
2022-07-27T11:56:52.847Z,52.59
2022-07-27T11:57:53.033Z,54.00
2022-07-27T11:58:52.839Z,54.37
2022-07-27T11:59:52.839Z,52.97
2022-07-27T12:00:52.821Z,54.90
2022-07-27T12:01:52.955Z,55.20
2022-07-27T12:02:52.841Z,55.70
2022-07-27T12:03:52.819Z,54.70
2022-07-27T12:04:52.869Z,54.52
2022-07-27T12:05:52.781Z,55.35
2022-07-27T12:06:52.755Z,55.68
2022-07-27T12:07:52.767Z,57.48
2022-07-27T12:08:52.748Z,57.41
2022-07-27T12:09:52.753Z,57.84
2022-07-27T12:10:52.925Z,57.84
2022-07-27T12:11:52.712Z,60.58
2022-07-27T12:12:52.705Z,61.88
2022-07-27T12:13:52.692Z,60.28
2022-07-27T12:14:52.744Z,58.67
2022-07-27T12:15:52.657Z,59.47
2022-07-27T12:16:52.674Z,59.70
2022-07-27T12:17:52.645Z,59.80
2022-07-27T12:18:52.621Z,59.41
2022-07-27T12:19:52.644Z,59.91
2022-07-27T12:20:52.596Z,59.20
2022-07-27T12:21:52.603Z,59.50
2022-07-27T12:22:52.595Z,58.29
2022-07-27T12:23:52.668Z,58.50
2022-07-27T12:24:52.604Z,59.58
2022-07-27T12:25:52.559Z,59.08
2022-07-27T12:26:52.536Z,56.93
2022-07-27T12:27:52.524Z,59.32
2022-07-27T12:28:52.505Z,58.59
2022-07-27T12:29:52.525Z,59.13
2022-07-27T12:30:52.644Z,59.98
2022-07-27T12:31:52.496Z,59.35
2022-07-27T12:32:55.521Z,55.49
2022-07-27T12:34:05.201Z,52.87
2022-07-27T12:34:53.469Z,52.55
2022-07-27T12:35:52.448Z,51.07
2022-07-27T12:36:52.428Z,50.77
2022-07-27T12:37:52.417Z,50.42
2022-07-27T12:38:52.396Z,50.37
2022-07-27T12:39:52.409Z,52.07
2022-07-27T12:40:56.772Z,52.42
2022-07-27T12:41:53.368Z,53.45
2022-07-27T12:42:52.350Z,54.25
2022-07-27T12:43:52.380Z,54.97
2022-07-27T12:44:52.394Z,55.47
2022-07-27T12:45:52.370Z,55.20
2022-07-27T12:46:52.309Z,56.71
2022-07-27T12:47:52.310Z,57.01
2022-07-27T12:48:52.341Z,57.24
2022-07-27T12:49:52.281Z,57.24
2022-07-27T12:50:52.313Z,59.14
2022-07-27T12:51:52.261Z,57.74
2022-07-27T12:52:52.239Z,57.24
2022-07-27T12:53:52.242Z,58.37